sensor_id;sensor_type;location;lat;lon;timestamp;pressure;altitude;pressure_sealevel;temperature;humidity
77537;BME280;67783;51.656;16.106;2023-04-01T00:01:35;99816.59;;;12.03;67.50
77537;BME280;67783;51.656;16.106;2023-04-01T00:04:40;99822.26;;;12.00;68.93
77537;BME280;67783;51.656;16.106;2023-04-01T00:07:42;99821.11;;;12.03;67.45
77537;BME280;67783;51.656;16.106;2023-04-01T00:10:45;99821.41;;;12.00;67.98
77537;BME280;67783;51.656;16.106;2023-04-01T00:13:47;99817.88;;;11.99;67.47
77537;BME280;67783;51.656;16.106;2023-04-01T00:16:49;99820.84;;;11.96;67.87
77537;BME280;67783;51.656;16.106;2023-04-01T00:20:01;99822.81;;;11.94;69.47
77537;BME280;67783;51.656;16.106;2023-04-01T00:23:04;99818.98;;;11.97;67.79
77537;BME280;67783;51.656;16.106;2023-04-01T00:26:06;99815.47;;;11.96;68.12
77537;BME280;67783;51.656;16.106;2023-04-01T00:29:08;99814.46;;;11.97;67.87
77537;BME280;67783;51.656;16.106;2023-04-01T00:32:10;99819.99;;;11.96;68.17
77537;BME280;67783;51.656;16.106;2023-04-01T00:35:21;99809.25;;;11.96;69.42
77537;BME280;67783;51.656;16.106;2023-04-01T00:38:23;99817.99;;;11.98;68.11
77537;BME280;67783;51.656;16.106;2023-04-01T00:41:26;99817.15;;;11.97;68.74
77537;BME280;67783;51.656;16.106;2023-04-01T00:44:33;99809.52;;;12.02;68.07
77537;BME280;67783;51.656;16.106;2023-04-01T00:47:36;99812.93;;;12.05;68.47
77537;BME280;67783;51.656;16.106;2023-04-01T00:50:44;99811.22;;;12.03;70.07
77537;BME280;67783;51.656;16.106;2023-04-01T00:53:50;99800.48;;;12.03;68.38
77537;BME280;67783;51.656;16.106;2023-04-01T00:57:05;99801.03;;;12.07;68.50
77537;BME280;67783;51.656;16.106;2023-04-01T01:00:11;99807.26;;;12.08;69.75
77537;BME280;67783;51.656;16.106;2023-04-01T01:03:15;99803.59;;;12.09;68.26
77537;BME280;67783;51.656;16.106;2023-04-01T01:13:03;99804.01;;;12.04;68.41
77537;BME280;67783;51.656;16.106;2023-04-01T01:22:56;99795.95;;;11.94;70.18
77537;BME280;67783;51.656;16.106;2023-04-01T01:35:52;99803.58;;;11.89;70.22
77537;BME280;67783;51.656;16.106;2023-04-01T01:38:57;99804.43;;;11.90;69.00
77537;BME280;67783;51.656;16.106;2023-04-01T01:42:02;99799.22;;;11.88;69.63
77537;BME280;67783;51.656;16.106;2023-04-01T01:45:15;99801.91;;;11.88;70.55
77537;BME280;67783;51.656;16.106;2023-04-01T01:48:19;99802.72;;;11.89;69.18
77537;BME280;67783;51.656;16.106;2023-04-01T01:51:22;99796.53;;;11.88;69.69
77537;BME280;67783;51.656;16.106;2023-04-01T01:54:24;99795.10;;;11.94;69.28
77537;BME280;67783;51.656;16.106;2023-04-01T01:57:28;99795.10;;;11.94;69.34
77537;BME280;67783;51.656;16.106;2023-04-01T02:00:35;99804.00;;;11.94;71.19
77537;BME280;67783;51.656;16.106;2023-04-01T02:03:39;99799.36;;;11.96;69.20
77537;BME280;67783;51.656;16.106;2023-04-01T02:06:47;99802.17;;;11.95;69.69
77537;BME280;67783;51.656;16.106;2023-04-01T02:10:00;99800.77;;;11.91;71.34
77537;BME280;67783;51.656;16.106;2023-04-01T02:13:09;99796.80;;;11.95;69.42
77537;BME280;67783;51.656;16.106;2023-04-01T02:19:40;99794.55;;;11.90;70.95
77537;BME280;67783;51.656;16.106;2023-04-01T02:22:49;99796.80;;;11.95;69.38
77537;BME280;67783;51.656;16.106;2023-04-01T02:25:51;99788.02;;;11.93;69.53
77537;BME280;67783;51.656;16.106;2023-04-01T02:28:57;99794.12;;;11.95;70.75
77537;BME280;67783;51.656;16.106;2023-04-01T02:32:02;99793.98;;;11.96;69.47
77537;BME280;67783;51.656;16.106;2023-04-01T02:35:10;99789.43;;;11.97;69.75
77537;BME280;67783;51.656;16.106;2023-04-01T02:38:22;99789.30;;;11.98;70.63
77537;BME280;67783;51.656;16.106;2023-04-01T02:41:24;99793.82;;;11.98;69.54
77537;BME280;67783;51.656;16.106;2023-04-01T02:44:27;99796.51;;;11.98;70.13
77537;BME280;67783;51.656;16.106;2023-04-01T02:47:28;99794.68;;;11.98;69.99
77537;BME280;67783;51.656;16.106;2023-04-01T02:50:30;99791.98;;;11.98;69.85
77537;BME280;67783;51.656;16.106;2023-04-01T02:53:32;99803.29;;;12.02;69.60
77537;BME280;67783;51.656;16.106;2023-04-01T02:56:34;99793.40;;;12.02;69.66
77537;BME280;67783;51.656;16.106;2023-04-01T02:59:38;99803.16;;;12.03;71.28
77537;BME280;67783;51.656;16.106;2023-04-01T03:02:40;99802.18;;;12.05;69.53
77537;BME280;67783;51.656;16.106;2023-04-01T03:05:42;99801.46;;;12.02;70.29
77537;BME280;67783;51.656;16.106;2023-04-01T03:08:44;99801.33;;;12.04;69.57
77537;BME280;67783;51.656;16.106;2023-04-01T03:11:46;99809.52;;;12.02;69.88
77537;BME280;67783;51.656;16.106;2023-04-01T03:14:47;99805.68;;;12.05;69.60
77537;BME280;67783;51.656;16.106;2023-04-01T03:17:49;99802.99;;;12.05;69.80
77537;BME280;67783;51.656;16.106;2023-04-01T03:20:54;99807.55;;;12.05;71.61
77537;BME280;67783;51.656;16.106;2023-04-01T03:23:56;99803.59;;;12.09;69.79
77537;BME280;67783;51.656;16.106;2023-04-01T03:26:58;99804.70;;;12.06;70.36
77537;BME280;67783;51.656;16.106;2023-04-01T03:29:59;99806.41;;;12.07;69.69
77537;BME280;67783;51.656;16.106;2023-04-01T03:33:01;99810.08;;;12.06;70.10
77537;BME280;67783;51.656;16.106;2023-04-01T03:36:04;99809.09;;;12.07;69.78
77537;BME280;67783;51.656;16.106;2023-04-01T03:39:08;99781.83;;;11.92;69.98
77537;BME280;67783;51.656;16.106;2023-04-01T03:42:12;99812.93;;;12.05;71.59
77537;BME280;67783;51.656;16.106;2023-04-01T03:45:14;99805.55;;;12.07;69.93
77537;BME280;67783;51.656;16.106;2023-04-01T03:48:17;99815.61;;;12.05;70.45
77537;BME280;67783;51.656;16.106;2023-04-01T03:51:19;99817.28;;;12.06;69.92
77537;BME280;67783;51.656;16.106;2023-04-01T03:54:21;99822.81;;;12.04;70.26
77537;BME280;67783;51.656;16.106;2023-04-01T03:57:33;99823.66;;;12.05;71.40
77537;BME280;67783;51.656;16.106;2023-04-01T04:00:35;99831.56;;;12.06;70.03
77537;BME280;67783;51.656;16.106;2023-04-01T04:03:37;99835.10;;;12.07;70.59
77537;BME280;67783;51.656;16.106;2023-04-01T04:06:39;99832.13;;;12.10;69.95
77537;BME280;67783;51.656;16.106;2023-04-01T04:09:41;99835.66;;;12.10;70.27
77537;BME280;67783;51.656;16.106;2023-04-01T04:12:54;99832.98;;;12.10;71.47
77537;BME280;67783;51.656;16.106;2023-04-01T04:15:56;99841.76;;;12.12;70.00
77537;BME280;67783;51.656;16.106;2023-04-01T04:18:57;99844.57;;;12.11;70.56
77537;BME280;67783;51.656;16.106;2023-04-01T04:21:59;99845.98;;;12.15;70.12
77537;BME280;67783;51.656;16.106;2023-04-01T04:25:03;99847.82;;;12.14;70.23
77537;BME280;67783;51.656;16.106;2023-04-01T04:28:14;99855.03;;;12.14;71.51
77537;BME280;67783;51.656;16.106;2023-04-01T04:31:21;99850.38;;;12.16;70.02
77537;BME280;67783;51.656;16.106;2023-04-01T04:34:23;99848.84;;;12.13;70.39
77537;BME280;67783;51.656;16.106;2023-04-01T04:37:26;99846.84;;;12.15;69.99
77537;BME280;67783;51.656;16.106;2023-04-01T04:40:27;99851.35;;;12.15;70.21
77537;BME280;67783;51.656;16.106;2023-04-01T04:43:35;99850.38;;;12.16;71.57
77537;BME280;67783;51.656;16.106;2023-04-01T04:46:36;99846.55;;;12.18;70.06
77537;BME280;67783;51.656;16.106;2023-04-01T04:49:40;99851.91;;;12.18;70.56
77537;BME280;67783;51.656;16.106;2023-04-01T04:52:42;99847.10;;;12.22;70.00
77537;BME280;67783;51.656;16.106;2023-04-01T04:55:45;99863.23;;;12.22;70.22
77537;BME280;67783;51.656;16.106;2023-04-01T04:58:55;99856.18;;;12.21;71.49
77537;BME280;67783;51.656;16.106;2023-04-01T05:02:15;99858.09;;;12.57;69.59
77537;BME280;67783;51.656;16.106;2023-04-01T05:05:17;99867.91;;;12.29;70.49
77537;BME280;67783;51.656;16.106;2023-04-01T05:08:19;99864.08;;;12.32;69.95
77537;BME280;67783;51.656;16.106;2023-04-01T05:11:21;99869.74;;;12.29;70.22
77537;BME280;67783;51.656;16.106;2023-04-01T05:14:22;99867.75;;;12.31;69.96
77537;BME280;67783;51.656;16.106;2023-04-01T05:17:24;99871.45;;;12.30;70.19
77537;BME280;67783;51.656;16.106;2023-04-01T05:20:30;99875.97;;;12.29;71.50
77537;BME280;67783;51.656;16.106;2023-04-01T05:23:32;99875.81;;;12.31;70.10
77537;BME280;67783;51.656;16.106;2023-04-01T05:26:34;99871.45;;;12.30;70.45
77537;BME280;67783;51.656;16.106;2023-04-01T05:29:37;99880.08;;;12.33;70.10
77537;BME280;67783;51.656;16.106;2023-04-01T05:32:39;99880.08;;;12.33;70.42
77537;BME280;67783;51.656;16.106;2023-04-01T05:35:50;99881.74;;;12.34;71.49
77537;BME280;67783;51.656;16.106;2023-04-01T05:38:55;99886.01;;;12.37;70.24
77537;BME280;67783;51.656;16.106;2023-04-01T05:41:57;99890.11;;;12.41;70.49
77537;BME280;67783;51.656;16.106;2023-04-01T05:44:59;99889.52;;;12.47;70.04
77537;BME280;67783;51.656;16.106;2023-04-01T05:48:01;99891.22;;;12.48;70.22
77537;BME280;67783;51.656;16.106;2023-04-01T05:51:15;99893.05;;;12.47;71.41
77537;BME280;67783;51.656;16.106;2023-04-01T05:54:16;99894.63;;;12.50;69.97
77537;BME280;67783;51.656;16.106;2023-04-01T05:57:18;99894.63;;;12.50;70.35
77537;BME280;67783;51.656;16.106;2023-04-01T06:00:20;99894.33;;;12.53;70.03
77537;BME280;67783;51.656;16.106;2023-04-01T06:03:22;99902.53;;;12.52;70.18
77537;BME280;67783;51.656;16.106;2023-04-01T06:06:32;99899.70;;;12.53;71.32
77537;BME280;67783;51.656;16.106;2023-04-01T06:09:36;99906.49;;;12.57;70.05
77537;BME280;67783;51.656;16.106;2023-04-01T06:35:42;99932.65;;;12.74;70.20
77537;BME280;67783;51.656;16.106;2023-04-01T06:45:31;99945.08;;;12.85;69.99
77537;BME280;67783;51.656;16.106;2023-04-01T06:58:31;99959.80;;;12.90;69.89
77537;BME280;67783;51.656;16.106;2023-04-01T07:01:51;99954.13;;;12.93;69.98
77537;BME280;67783;51.656;16.106;2023-04-01T07:04:51;99954.13;;;12.93;70.07
77537;BME280;67783;51.656;16.106;2023-04-01T07:07:59;99963.30;;;13.01;69.75
77537;BME280;67783;51.656;16.106;2023-04-01T07:11:11;99939.27;;;12.89;69.80
77537;BME280;67783;51.656;16.106;2023-04-01T07:14:25;99963.42;;;13.09;70.03
77537;BME280;67783;51.656;16.106;2023-04-01T07:17:42;99960.92;;;13.17;70.42
77537;BME280;67783;51.656;16.106;2023-04-01T07:20:46;99966.11;;;13.28;69.50
77537;BME280;67783;51.656;16.106;2023-04-01T07:23:50;99964.22;;;13.38;69.45
77537;BME280;67783;51.656;16.106;2023-04-01T07:26:56;99976.49;;;13.50;69.11
77537;BME280;67783;51.656;16.106;2023-04-01T07:29:58;99976.46;;;13.60;69.00
77537;BME280;67783;51.656;16.106;2023-04-01T07:33:19;99974.72;;;13.68;69.33
77537;BME280;67783;51.656;16.106;2023-04-01T07:39:45;99957.41;;;13.71;68.55
77537;BME280;67783;51.656;16.106;2023-04-01T07:49:22;99984.13;;;14.09;67.86
77537;BME280;67783;51.656;16.106;2023-04-01T07:59:03;99997.34;;;14.30;67.45
77537;BME280;67783;51.656;16.106;2023-04-01T08:05:29;99994.61;;;14.40;67.18
77537;BME280;67783;51.656;16.106;2023-04-01T08:08:53;100003.24;;;14.43;67.22
77537;BME280;67783;51.656;16.106;2023-04-01T08:24:54;100006.30;;;14.84;66.07
77537;BME280;67783;51.656;16.106;2023-04-01T08:31:19;100013.99;;;14.96;66.25
77537;BME280;67783;51.656;16.106;2023-04-01T08:37:40;100016.82;;;15.12;65.85
77537;BME280;67783;51.656;16.106;2023-04-01T08:40:55;100011.14;;;15.15;65.78
77537;BME280;67783;51.656;16.106;2023-04-01T09:00:32;100018.64;;;15.30;63.93
77537;BME280;67783;51.656;16.106;2023-04-01T09:10:14;100030.72;;;15.43;64.17
77537;BME280;67783;51.656;16.106;2023-04-01T10:12:19;100070.07;;;15.46;62.42
77537;BME280;67783;51.656;16.106;2023-04-01T10:28:38;100073.65;;;15.29;63.75
77537;BME280;67783;51.656;16.106;2023-04-01T10:45:03;100076.74;;;15.51;63.62
77537;BME280;67783;51.656;16.106;2023-04-01T10:54:45;100074.46;;;15.47;63.26
77537;BME280;67783;51.656;16.106;2023-04-01T11:24:09;100083.91;;;15.25;63.56
77537;BME280;67783;51.656;16.106;2023-04-01T11:33:57;100089.83;;;15.03;63.94
77537;BME280;67783;51.656;16.106;2023-04-01T11:43:48;100097.28;;;15.09;63.89
77537;BME280;67783;51.656;16.106;2023-04-01T12:10:02;100122.42;;;14.92;64.95
77537;BME280;67783;51.656;16.106;2023-04-01T12:55:43;100165.02;;;14.70;65.08
77537;BME280;67783;51.656;16.106;2023-04-01T13:02:24;100170.27;;;14.72;65.95
77537;BME280;67783;51.656;16.106;2023-04-01T13:08:47;100180.23;;;14.71;65.52
77537;BME280;67783;51.656;16.106;2023-04-01T13:18:30;100185.52;;;14.63;65.79
77537;BME280;67783;51.656;16.106;2023-04-01T13:41:23;100198.94;;;14.46;65.92
77537;BME280;67783;51.656;16.106;2023-04-01T14:10:49;100227.27;;;15.14;65.95
77537;BME280;67783;51.656;16.106;2023-04-01T14:14:01;100230.05;;;15.22;66.21
77537;BME280;67783;51.656;16.106;2023-04-01T14:33:43;100249.98;;;15.39;65.62
77537;BME280;67783;51.656;16.106;2023-04-01T14:36:55;100248.45;;;15.36;65.71
77537;BME280;67783;51.656;16.106;2023-04-01T14:40:10;100250.58;;;15.33;65.75
77537;BME280;67783;51.656;16.106;2023-04-01T14:46:43;100258.77;;;15.23;65.62
77537;BME280;67783;51.656;16.106;2023-04-01T14:49:48;100261.38;;;15.15;65.79
77537;BME280;67783;51.656;16.106;2023-04-01T14:52:58;100260.98;;;15.10;65.65
77537;BME280;67783;51.656;16.106;2023-04-01T14:56:02;100262.59;;;15.03;65.76
77537;BME280;67783;51.656;16.106;2023-04-01T15:22:04;100282.16;;;14.21;67.59
77537;BME280;67783;51.656;16.106;2023-04-01T15:31:47;100290.00;;;13.96;67.63
77537;BME280;67783;51.656;16.106;2023-04-01T15:35:15;100292.00;;;13.84;69.03
77537;BME280;67783;51.656;16.106;2023-04-01T15:44:48;100303.61;;;13.56;68.73
77537;BME280;67783;51.656;16.106;2023-04-01T15:48:01;100308.14;;;13.55;68.60
77537;BME280;67783;51.656;16.106;2023-04-01T16:23:40;100364.91;;;13.23;68.91
77537;BME280;67783;51.656;16.106;2023-04-01T16:30:19;100371.47;;;13.00;69.61
77537;BME280;67783;51.656;16.106;2023-04-01T16:39:46;100393.34;;;12.86;69.58
77537;BME280;67783;51.656;16.106;2023-04-01T16:42:56;100399.11;;;12.81;69.07
77537;BME280;67783;51.656;16.106;2023-04-01T16:52:36;100416.63;;;12.55;69.70
77537;BME280;67783;51.656;16.106;2023-04-01T16:55:49;100417.68;;;12.43;69.75
77537;BME280;67783;51.656;16.106;2023-04-01T16:59:03;100418.48;;;12.34;70.19
77537;BME280;67783;51.656;16.106;2023-04-01T17:12:08;100447.23;;;11.90;71.23
77537;BME280;67783;51.656;16.106;2023-04-01T17:21:50;100450.66;;;11.70;72.23
77537;BME280;67783;51.656;16.106;2023-04-01T17:31:38;100465.56;;;11.63;71.20
77537;BME280;67783;51.656;16.106;2023-04-01T17:41:16;100488.02;;;11.62;71.53
77537;BME280;67783;51.656;16.106;2023-04-01T17:47:49;100505.09;;;11.61;70.99
77537;BME280;67783;51.656;16.106;2023-04-01T17:50:56;100499.98;;;11.58;71.19
77537;BME280;67783;51.656;16.106;2023-04-01T18:00:33;100518.02;;;11.56;71.46
77537;BME280;67783;51.656;16.106;2023-04-01T18:20:05;100555.47;;;11.35;71.26
77537;BME280;67783;51.656;16.106;2023-04-01T18:29:51;100563.66;;;11.34;72.95
77537;BME280;67783;51.656;16.106;2023-04-01T18:36:18;100568.28;;;11.32;71.71
77537;BME280;67783;51.656;16.106;2023-04-01T18:42:46;100575.97;;;11.25;71.59
77537;BME280;67783;51.656;16.106;2023-04-01T18:46:00;100584.63;;;11.18;71.88
77537;BME280;67783;51.656;16.106;2023-04-01T18:55:46;100598.48;;;11.11;72.01
77537;BME280;67783;51.656;16.106;2023-04-01T19:02:20;100613.46;;;11.03;73.02
77537;BME280;67783;51.656;16.106;2023-04-01T19:05:33;100619.57;;;11.05;71.69
77537;BME280;67783;51.656;16.106;2023-04-01T19:08:40;100618.96;;;11.01;71.91
77537;BME280;67783;51.656;16.106;2023-04-01T19:11:50;100630.41;;;11.03;72.98
77537;BME280;67783;51.656;16.106;2023-04-01T19:15:09;100631.78;;;11.09;71.52
77537;BME280;67783;51.656;16.106;2023-04-01T19:41:20;100659.36;;;10.87;71.47
77537;BME280;67783;51.656;16.106;2023-04-01T19:44:31;100659.31;;;10.76;71.59
77537;BME280;67783;51.656;16.106;2023-04-01T20:00:44;100696.70;;;10.54;72.07
77537;BME280;67783;51.656;16.106;2023-04-01T20:03:55;100697.33;;;10.57;71.52
77537;BME280;67783;51.656;16.106;2023-04-01T20:07:09;100701.53;;;10.49;71.81
77537;BME280;67783;51.656;16.106;2023-04-01T20:10:22;100702.49;;;10.48;71.83
77537;BME280;67783;51.656;16.106;2023-04-01T20:26:33;100722.64;;;10.53;71.43
77537;BME280;67783;51.656;16.106;2023-04-01T20:29:47;100730.27;;;10.47;71.64
77537;BME280;67783;51.656;16.106;2023-04-01T20:49:10;100757.17;;;10.07;71.47
77537;BME280;67783;51.656;16.106;2023-04-01T20:52:20;100764.48;;;10.05;71.68
77537;BME280;67783;51.656;16.106;2023-04-01T20:58:49;100771.97;;;10.00;71.36
77537;BME280;67783;51.656;16.106;2023-04-01T21:02:02;100779.45;;;9.95;71.65
77537;BME280;67783;51.656;16.106;2023-04-01T21:11:56;100789.27;;;9.82;71.60
77537;BME280;67783;51.656;16.106;2023-04-01T21:58:07;100853.41;;;9.17;72.17
77537;BME280;67783;51.656;16.106;2023-04-01T22:10:51;100870.04;;;9.08;71.24
77537;BME280;67783;51.656;16.106;2023-04-01T22:14:05;100888.02;;;9.06;71.19
77537;BME280;67783;51.656;16.106;2023-04-01T22:20:38;100889.99;;;9.03;71.23
77537;BME280;67783;51.656;16.106;2023-04-01T22:36:56;100910.76;;;8.85;70.85
77537;BME280;67783;51.656;16.106;2023-04-01T22:43:25;100920.27;;;8.75;71.16
77537;BME280;67783;51.656;16.106;2023-04-01T22:46:49;100924.29;;;8.68;71.60
77537;BME280;67783;51.656;16.106;2023-04-01T22:56:27;100932.30;;;8.68;71.19
77537;BME280;67783;51.656;16.106;2023-04-01T23:03:00;100942.41;;;8.63;71.09
77537;BME280;67783;51.656;16.106;2023-04-01T23:05:56;100943.74;;;8.56;71.29
77537;BME280;67783;51.656;16.106;2023-04-01T23:12:13;100953.09;;;8.49;71.05
77537;BME280;67783;51.656;16.106;2023-04-01T23:15:16;100963.86;;;8.47;71.74
77537;BME280;67783;51.656;16.106;2023-04-01T23:18:24;100962.05;;;8.48;70.98
77537;BME280;67783;51.656;16.106;2023-04-01T23:24:53;100974.48;;;8.49;71.69
77537;BME280;67783;51.656;16.106;2023-04-01T23:28:17;100977.54;;;8.57;70.90
77537;BME280;67783;51.656;16.106;2023-04-01T23:34:32;100985.72;;;8.54;70.71
77537;BME280;67783;51.656;16.106;2023-04-01T23:37:35;100984.02;;;8.53;70.97
77537;BME280;67783;51.656;16.106;2023-04-01T23:40:37;100990.66;;;8.46;70.63
77537;BME280;67783;51.656;16.106;2023-04-01T23:43:44;100999.65;;;8.45;71.21
77537;BME280;67783;51.656;16.106;2023-04-01T23:46:48;101004.99;;;8.45;70.68
77537;BME280;67783;51.656;16.106;2023-04-01T23:49:57;101010.69;;;8.39;70.71
77537;BME280;67783;51.656;16.106;2023-04-01T23:53:17;101013.63;;;8.34;70.86
77537;BME280;67783;51.656;16.106;2023-04-01T23:56:20;101015.34;;;8.35;70.50
77537;BME280;67783;51.656;16.106;2023-04-01T23:59:30;101018.20;;;8.32;70.56
